Time;durP1;ratioP1;P1;durP2;ratioP2;P2;SDS_P1;SDS_P2;PMS_P1;PMS_P2;Temp;Humidity;BMP_temperature;BMP_pressure;BME280_temperature;BME280_humidity;BME280_pressure;Samples;Min_cycle;Max_cycle;Signal;HPM_P1;HPM_P2
2021/12/10 00:01:11;;;;;;;126.18;51.75;;;1.80;99.90;;;1.94;64.29;97453.91;6042741;23;20422;-83
2021/12/10 00:03:46;;;;;;;138.43;51.13;;;1.90;99.90;;;1.70;64.31;97448.00;6032183;23;20018;-83
2021/12/10 00:06:32;;;;;;;155.38;60.85;;;1.80;99.90;;;1.69;65.07;97443.75;6054824;23;20014;-83
2021/12/10 00:09:17;;;;;;;206.85;80.32;;;1.80;99.90;;;1.77;64.85;97432.59;6054822;23;20376;-83
2021/12/10 00:11:50;;;;;;;151.55;59.53;;;1.80;99.90;;;1.74;64.65;97431.22;6054555;23;20023;-83
2021/12/10 00:14:16;;;;;;;396.33;164.55;;;1.80;99.90;;;1.55;65.12;97435.28;6054404;23;20090;-83
2021/12/10 00:16:42;;;;;;;180.88;69.50;;;1.70;99.90;;;1.55;65.38;97427.25;6044347;23;20433;-83
2021/12/10 00:19:22;;;;;;;155.10;58.25;;;1.70;99.90;;;1.40;65.78;97435.91;6044615;23;20015;-83
2021/12/10 00:21:48;;;;;;;142.40;54.63;;;1.70;99.90;;;1.32;65.87;97428.31;6067591;23;20598;-83
2021/12/10 00:24:16;;;;;;;207.85;78.25;;;1.60;99.90;;;1.43;65.84;97427.41;6043532;23;20034;-83
2021/12/10 00:26:43;;;;;;;352.15;147.82;;;1.60;99.90;;;1.39;65.95;97426.25;6044514;23;20022;-83
2021/12/10 00:29:10;;;;;;;164.02;61.78;;;1.50;99.90;;;1.34;65.98;97426.19;6044663;23;20101;-83
2021/12/10 00:31:49;;;;;;;141.90;55.08;;;1.50;99.90;;;1.30;66.19;97427.75;6043982;23;20038;-83
2021/12/10 00:34:18;;;;;;;132.70;51.85;;;1.50;99.90;;;1.36;66.30;97421.41;6053911;23;20034;-83
2021/12/10 00:36:45;;;;;;;131.25;55.20;;;1.50;99.90;;;1.44;66.24;97420.97;6066781;23;20022;-83
2021/12/10 00:39:19;;;;;;;152.85;56.55;;;1.50;99.90;;;1.49;66.48;97429.06;6043887;23;20473;-83
2021/12/10 00:41:45;;;;;;;144.00;53.80;;;1.50;99.90;;;1.54;66.23;97427.53;6030156;23;20019;-83
2021/12/10 00:44:11;;;;;;;149.95;53.78;;;1.50;99.90;;;1.58;66.26;97428.63;6017452;23;20083;-83
2021/12/10 00:46:37;;;;;;;137.60;51.90;;;1.60;99.90;;;1.59;65.86;97422.22;6041147;23;20030;-83
2021/12/10 00:49:04;;;;;;;136.52;56.05;;;1.60;99.90;;;1.49;66.24;97413.03;6041838;23;20543;-83
2021/12/10 00:51:30;;;;;;;126.72;49.30;;;1.60;99.90;;;1.57;66.02;97419.00;6042705;23;20030;-83
2021/12/10 00:53:57;;;;;;;138.07;53.95;;;1.60;99.90;;;1.64;65.77;97423.09;6065328;23;20497;-83
2021/12/10 00:56:23;;;;;;;129.27;52.08;;;1.70;99.90;;;1.49;66.03;97412.22;6042490;23;20691;-83
2021/12/10 00:58:49;;;;;;;164.98;63.58;;;1.60;99.90;;;1.42;66.21;97399.03;6040780;23;20162;-83
2021/12/10 01:01:19;;;;;;;156.57;57.65;;;1.60;99.90;;;1.42;66.00;97392.91;6041703;23;20015;-83
2021/12/10 01:03:49;;;;;;;186.00;75.70;;;1.50;99.90;;;1.65;66.16;97399.84;6051429;23;20062;-83
2021/12/10 01:06:16;;;;;;;174.25;76.30;;;1.60;99.90;;;1.76;65.14;97387.41;6051409;23;20517;-83
2021/12/10 01:08:46;;;;;;;141.15;53.80;;;1.70;99.90;;;1.63;65.39;97392.09;6017325;23;20021;-83
2021/12/10 01:11:16;;;;;;;166.38;66.00;;;1.70;99.90;;;1.65;65.24;97406.00;6041505;23;20512;-83
2021/12/10 01:13:45;;;;;;;145.30;58.00;;;1.70;99.90;;;1.76;65.22;97406.94;6051270;23;20025;-83
2021/12/10 01:27:26;;;;;;;158.80;59.85;;;2.00;99.90;;;2.16;64.69;97417.25;6057249;23;20073;-83
2021/12/10 01:29:56;;;;;;;149.68;55.05;;;2.00;99.90;;;2.14;64.53;97423.91;6055585;23;20015;-83
2021/12/10 01:32:24;;;;;;;136.30;50.72;;;2.00;99.90;;;2.06;65.08;97409.13;6021107;23;20023;-83
2021/12/10 01:34:50;;;;;;;124.63;49.63;;;2.10;99.90;;;2.18;64.42;97411.63;6042215;23;20074;-83
2021/12/10 01:37:17;;;;;;;128.55;50.20;;;2.10;99.90;;;2.18;64.38;97412.41;6042252;23;20098;-83
2021/12/10 01:39:43;;;;;;;128.68;50.15;;;2.10;99.90;;;2.18;64.99;97414.28;6042348;23;20391;-83
2021/12/10 01:42:30;;;;;;;154.63;52.72;;;2.10;99.90;;;2.18;64.51;97420.44;6019717;23;20015;-83
2021/12/10 01:44:58;;;;;;;117.90;46.42;;;2.10;99.90;;;2.28;64.57;97424.28;6055083;23;20470;-83
2021/12/10 01:47:33;;;;;;;142.93;53.90;;;2.10;99.90;;;2.18;64.13;97425.00;6044386;23;20019;-83
2021/12/10 01:50:00;;;;;;;128.93;48.90;;;2.10;99.90;;;2.21;64.49;97424.47;6078080;23;20142;-83
2021/12/10 01:52:26;;;;;;;125.47;51.30;;;2.20;99.90;;;2.30;64.04;97419.50;6044436;23;20026;-83
2021/12/10 01:54:57;;;;;;;138.25;53.50;;;2.20;99.90;;;2.25;63.99;97419.44;6020007;23;20019;-83
2021/12/10 01:57:27;;;;;;;135.80;51.08;;;2.20;99.90;;;2.03;63.85;97420.31;6052254;23;20404;-83
2021/12/10 01:59:53;;;;;;;147.50;55.80;;;2.10;99.90;;;1.95;64.83;97426.09;6043594;23;20015;-83
2021/12/10 02:02:28;;;;;;;125.00;50.40;;;2.10;99.90;;;1.81;64.51;97422.22;6044316;23;20047;-83
2021/12/10 02:04:55;;;;;;;124.30;49.58;;;2.00;99.90;;;2.01;64.79;97419.75;6053446;23;20089;-83
2021/12/10 02:07:24;;;;;;;129.32;50.95;;;2.00;99.90;;;2.14;64.42;97421.22;6044142;23;20019;-83
2021/12/10 02:09:51;;;;;;;140.60;51.80;;;2.00;99.90;;;2.02;64.63;97421.38;6044357;23;20018;-83
2021/12/10 02:12:18;;;;;;;118.10;48.40;;;2.00;99.90;;;1.99;65.41;97418.41;6021778;23;20078;-82
2021/12/10 02:14:49;;;;;;;127.85;50.38;;;2.00;99.90;;;2.07;64.75;97417.94;6020373;23;20624;-83
2021/12/10 02:17:15;;;;;;;129.05;52.35;;;2.00;99.90;;;2.03;64.50;97416.81;6044552;23;20023;-83
2021/12/10 02:19:42;;;;;;;145.45;55.65;;;2.10;99.90;;;1.95;65.22;97420.75;6043454;23;20101;-83
2021/12/10 02:22:08;;;;;;;127.20;51.53;;;2.10;99.90;;;2.10;65.31;97404.84;6046290;23;20049;-83
2021/12/10 02:24:34;;;;;;;135.82;53.30;;;2.10;99.90;;;2.30;64.75;97406.91;6045553;23;20022;-83
2021/12/10 02:27:05;;;;;;;142.07;55.25;;;2.10;99.90;;;2.33;64.70;97401.06;6045231;23;20091;-83
2021/12/10 02:29:33;;;;;;;145.07;58.10;;;2.20;99.90;;;2.15;64.50;97390.72;6055696;23;20498;-83
2021/12/10 02:31:59;;;;;;;157.25;62.80;;;2.20;99.90;;;1.88;64.88;97388.88;6046188;23;20082;-83
2021/12/10 02:34:25;;;;;;;145.25;60.15;;;2.10;99.90;;;1.81;65.39;97387.47;6022387;23;20018;-83
2021/12/10 02:36:52;;;;;;;131.45;54.88;;;2.00;99.90;;;1.90;65.48;97381.41;6042988;23;20485;-83
2021/12/10 02:39:21;;;;;;;162.25;57.00;;;1.90;99.90;;;1.99;65.23;97373.75;6053509;23;20025;-83
2021/12/10 02:41:47;;;;;;;207.30;58.55;;;2.00;99.90;;;2.04;65.04;97365.75;6044727;23;20463;-82
2021/12/10 02:44:17;;;;;;;147.35;57.97;;;2.00;99.90;;;2.08;65.26;97366.84;6019910;23;20034;-83
2021/12/10 02:46:43;;;;;;;152.50;59.63;;;2.10;99.90;;;2.06;65.63;97379.69;6044382;23;20093;-83
2021/12/10 02:49:10;;;;;;;136.15;54.50;;;2.10;99.90;;;2.03;65.48;97371.34;6020289;23;20446;-83
2021/12/10 02:51:37;;;;;;;126.85;50.90;;;2.10;99.90;;;2.10;64.84;97363.94;6044354;23;20094;-83
2021/12/10 02:54:05;;;;;;;135.25;51.97;;;2.10;99.90;;;2.09;65.44;97365.00;6044649;23;20023;-83
2021/12/10 02:56:31;;;;;;;135.93;51.45;;;2.00;99.90;;;1.92;65.34;97351.75;6044609;23;20019;-83
2021/12/10 02:58:59;;;;;;;154.32;57.88;;;2.00;99.90;;;1.90;65.44;97360.00;6044715;23;20027;-83
2021/12/10 03:01:42;;;;;;;146.43;58.38;;;1.90;99.90;;;1.98;64.67;97357.94;6045332;23;20015;-83
2021/12/10 03:04:08;;;;;;;155.00;56.97;;;1.90;99.90;;;2.00;65.16;97358.50;6053863;23;20090;-83
2021/12/10 03:06:37;;;;;;;152.68;53.97;;;1.90;99.90;;;1.92;65.26;97363.22;6045586;23;20034;-82
2021/12/10 03:09:03;;;;;;;134.65;57.53;;;1.90;99.90;;;1.89;64.89;97362.94;6070161;23;20447;-82
2021/12/10 03:11:33;;;;;;;143.20;57.15;;;1.90;99.90;;;1.81;65.41;97353.50;6045375;23;20026;-82
2021/12/10 03:14:05;;;;;;;131.65;55.22;;;1.80;99.90;;;1.85;65.50;97356.47;6045668;23;20046;-83
2021/12/10 03:16:32;;;;;;;149.10;57.15;;;1.80;99.90;;;1.90;65.13;97353.84;6047009;23;20240;-83
2021/12/10 03:18:59;;;;;;;154.27;58.20;;;1.80;99.90;;;1.95;64.73;97356.56;6043587;23;20019;-83
2021/12/10 03:21:25;;;;;;;145.57;56.38;;;1.80;99.90;;;1.96;64.98;97347.50;6020393;23;20067;-83
2021/12/10 03:23:51;;;;;;;141.75;55.03;;;1.80;99.90;;;1.98;64.70;97341.88;6045460;23;20074;-82
2021/12/10 03:26:19;;;;;;;144.45;54.20;;;1.80;99.90;;;2.01;64.50;97360.09;6021322;23;20038;-83
2021/12/10 03:28:45;;;;;;;159.40;54.25;;;1.80;99.90;;;1.96;65.00;97374.25;6046530;23;20042;-83
2021/12/10 03:31:12;;;;;;;127.82;50.88;;;1.80;99.90;;;1.90;64.68;97375.25;6045071;23;20026;-83
2021/12/10 03:33:39;;;;;;;152.43;55.13;;;1.90;99.90;;;1.93;65.10;97377.41;6045673;23;20022;-82
2021/12/10 03:36:06;;;;;;;147.30;55.45;;;1.90;99.90;;;1.88;65.14;97369.34;6069058;23;20026;-82
2021/12/10 03:38:33;;;;;;;177.52;66.35;;;1.90;99.90;;;1.84;65.08;97366.38;6047066;23;20007;-82
2021/12/10 03:40:59;;;;;;;156.48;60.03;;;1.90;99.90;;;1.82;65.14;97371.16;6045711;23;20026;-82
2021/12/10 03:43:25;;;;;;;162.15;60.60;;;1.80;99.90;;;1.91;64.87;97382.22;6045647;23;20061;-83
2021/12/10 03:45:53;;;;;;;156.23;61.92;;;1.80;99.90;;;2.00;65.15;97383.38;6044576;23;20070;-83
2021/12/10 03:48:24;;;;;;;159.65;63.08;;;1.90;99.90;;;2.03;64.83;97390.06;6046044;23;20324;-82
2021/12/10 03:50:51;;;;;;;158.57;65.60;;;1.90;99.90;;;2.06;64.95;97392.25;6051555;23;20022;-82
2021/12/10 03:53:19;;;;;;;151.05;56.63;;;1.90;99.90;;;2.06;64.99;97385.03;6020420;23;20023;-82
2021/12/10 03:55:45;;;;;;;152.13;62.53;;;2.00;99.90;;;2.10;64.81;97379.97;6044513;23;20632;-82
2021/12/10 03:58:11;;;;;;;161.25;62.67;;;2.00;99.90;;;2.20;64.38;97384.63;6045653;23;20019;-82
2021/12/10 04:00:42;;;;;;;159.18;59.80;;;2.00;99.90;;;2.08;64.57;97379.44;6043464;23;20022;-82
2021/12/10 04:03:09;;;;;;;144.32;62.35;;;2.10;99.90;;;2.01;65.42;97382.31;6055336;23;20447;-82
2021/12/10 04:05:35;;;;;;;154.73;57.42;;;2.00;99.90;;;2.08;65.39;97382.09;6020756;23;20516;-82
2021/12/10 04:08:02;;;;;;;153.57;60.53;;;2.00;99.90;;;2.10;65.15;97382.66;6043060;23;20030;-82
2021/12/10 04:10:28;;;;;;;149.82;60.13;;;2.10;99.90;;;1.99;64.91;97380.97;6019827;23;20351;-82
2021/12/10 04:12:55;;;;;;;148.80;60.33;;;2.00;99.90;;;2.00;65.30;97385.25;6041817;23;20154;-82
2021/12/10 04:15:23;;;;;;;148.07;57.00;;;2.00;99.90;;;1.99;65.66;97391.66;6042581;23;20416;-83
2021/12/10 04:17:52;;;;;;;148.18;59.22;;;2.00;99.90;;;2.04;65.24;97400.53;6042239;23;20446;-82
2021/12/10 04:20:19;;;;;;;155.48;59.33;;;2.00;99.90;;;2.15;64.63;97404.91;6018298;23;20388;-82
2021/12/10 04:22:46;;;;;;;139.07;56.47;;;2.10;99.90;;;2.18;65.18;97403.59;6041483;23;20018;-82
2021/12/10 04:25:14;;;;;;;148.50;59.22;;;2.10;99.90;;;2.13;65.06;97400.88;6041841;23;20018;-82
2021/12/10 04:27:41;;;;;;;141.30;58.15;;;2.10;99.90;;;2.12;64.84;97391.25;6042034;23;20019;-82
2021/12/10 04:30:10;;;;;;;137.95;52.70;;;2.10;99.90;;;2.08;64.98;97390.13;6043234;23;20018;-82
2021/12/10 04:32:36;;;;;;;119.45;49.22;;;2.10;99.90;;;2.14;64.58;97386.44;6044580;23;20023;-82
2021/12/10 04:35:03;;;;;;;132.73;55.13;;;2.20;99.90;;;2.18;64.49;97374.16;6044712;23;20014;-82
2021/12/10 04:37:29;;;;;;;131.95;54.45;;;2.20;99.90;;;2.20;64.34;97379.28;6043589;23;20042;-82
2021/12/10 04:39:54;;;;;;;142.40;50.17;;;2.10;99.90;;;2.13;64.56;97382.94;6022342;23;20030;-82
2021/12/10 04:42:23;;;;;;;131.80;52.72;;;2.10;99.90;;;2.03;64.63;97380.19;6043635;23;20030;-82
2021/12/10 04:44:54;;;;;;;136.80;52.08;;;2.10;99.90;;;2.02;65.20;97388.47;6042983;23;20019;-82
2021/12/10 04:47:19;;;;;;;121.90;50.78;;;2.10;99.90;;;1.92;65.36;97389.97;6053472;23;20026;-82
2021/12/10 04:49:47;;;;;;;231.65;60.08;;;2.00;99.90;;;1.97;66.15;97407.16;6044108;23;20391;-83
2021/12/10 04:52:13;;;;;;;121.80;50.92;;;2.00;99.90;;;2.07;66.07;97410.72;6044197;23;20750;-82
2021/12/10 04:54:39;;;;;;;131.68;50.35;;;2.00;99.90;;;2.09;65.47;97405.13;6066595;23;20050;-82
2021/12/10 04:57:05;;;;;;;133.40;51.10;;;2.00;99.90;;;1.92;65.37;97399.88;6042432;23;20018;-82
2021/12/10 04:59:34;;;;;;;134.15;55.90;;;2.00;99.90;;;1.84;65.32;97414.50;6019769;23;20568;-82
2021/12/10 05:02:03;;;;;;;146.30;54.80;;;1.90;99.90;;;1.76;65.40;97412.28;6045053;23;20034;-82
2021/12/10 05:04:29;;;;;;;133.15;50.85;;;1.90;99.90;;;1.81;65.80;97419.56;6019887;23;20050;-82
2021/12/10 05:06:55;;;;;;;149.30;59.40;;;1.80;99.90;;;1.80;65.91;97418.72;6019885;23;20063;-82
2021/12/10 05:09:22;;;;;;;145.40;60.60;;;1.80;99.90;;;1.85;65.58;97426.00;6044197;23;20039;-82
2021/12/10 05:11:49;;;;;;;154.85;60.30;;;1.80;99.90;;;1.92;65.12;97426.63;6042716;23;20023;-82
2021/12/10 05:14:16;;;;;;;138.43;58.22;;;1.90;99.90;;;1.95;65.32;97418.09;6043323;23;20019;-82
2021/12/10 05:16:44;;;;;;;141.07;55.10;;;1.90;99.90;;;1.82;65.52;97415.81;6042865;23;20026;-82
2021/12/10 05:19:19;;;;;;;155.85;57.42;;;1.90;99.90;;;1.82;66.04;97424.63;6043395;23;20023;-81
2021/12/10 05:21:46;;;;;;;141.02;56.75;;;1.90;99.90;;;1.83;65.70;97415.56;6046337;23;20015;-81
2021/12/10 05:24:12;;;;;;;149.02;58.65;;;1.90;99.90;;;1.76;65.48;97414.94;6045705;23;20023;-82
2021/12/10 05:26:39;;;;;;;186.35;65.65;;;1.90;99.90;;;1.70;66.17;97408.72;6070209;23;20022;-83
2021/12/10 05:29:06;;;;;;;224.93;80.85;;;1.80;99.90;;;1.77;65.51;97394.38;6019627;23;20014;-82
2021/12/10 05:31:32;;;;;;;213.95;77.93;;;1.80;99.90;;;1.84;65.57;97390.44;6041856;23;20046;-81
2021/12/10 05:33:58;;;;;;;201.95;76.68;;;1.70;99.90;;;1.89;65.39;97397.72;6042255;23;20034;-82
2021/12/10 05:36:26;;;;;;;219.65;78.55;;;1.80;99.90;;;1.92;65.14;97392.66;6016296;23;20050;-82
2021/12/10 05:38:53;;;;;;;227.77;80.70;;;1.80;99.90;;;1.92;65.14;97398.00;6051321;23;20383;-82
2021/12/10 05:41:19;;;;;;;205.55;75.88;;;1.90;99.90;;;1.97;65.14;97391.91;6041497;23;20019;-80
2021/12/10 05:43:47;;;;;;;194.13;72.53;;;1.90;99.90;;;2.08;64.80;97387.44;6039281;23;20542;-81
2021/12/10 05:46:13;;;;;;;197.73;73.50;;;1.90;99.90;;;2.14;65.27;97392.59;6060773;23;20022;-81
2021/12/10 05:48:40;;;;;;;177.45;67.82;;;2.00;99.90;;;2.29;64.40;97383.06;6036629;23;20015;-81
2021/12/10 05:51:06;;;;;;;162.80;63.33;;;2.10;99.90;;;2.32;64.56;97387.94;6014403;23;20554;-81
2021/12/10 05:53:32;;;;;;;179.23;65.10;;;2.20;99.90;;;2.24;64.75;97394.56;6038004;23;20102;-81
2021/12/10 05:55:58;;;;;;;178.82;66.57;;;2.20;99.90;;;2.24;64.90;97391.91;6039416;23;20034;-81
2021/12/10 05:58:26;;;;;;;147.93;60.63;;;2.20;99.90;;;2.22;64.77;97399.38;6040463;23;20022;-81
2021/12/10 06:01:02;;;;;;;155.18;62.78;;;2.30;99.90;;;2.13;65.52;97392.84;6040865;23;20302;-81
2021/12/10 06:03:30;;;;;;;162.50;62.08;;;2.20;99.90;;;2.05;64.98;97387.97;6052699;23;20328;-81
2021/12/10 06:05:56;;;;;;;155.43;61.47;;;2.20;99.90;;;2.05;65.28;97398.66;6040156;23;20026;-81
2021/12/10 06:08:23;;;;;;;152.05;62.65;;;2.20;99.90;;;2.16;65.26;97397.69;6040258;23;20019;-81
2021/12/10 06:10:50;;;;;;;174.70;65.45;;;2.20;99.90;;;2.33;64.78;97403.72;6017355;23;20098;-81
2021/12/10 06:13:16;;;;;;;163.43;66.22;;;2.30;99.90;;;2.25;64.90;97400.72;6039440;23;20030;-81
2021/12/10 06:15:42;;;;;;;173.32;64.53;;;2.30;99.90;;;2.10;65.17;97396.03;6016067;23;20115;-81
2021/12/10 06:18:09;;;;;;;167.45;65.00;;;2.30;99.90;;;2.06;64.96;97395.75;6062724;23;20051;-81
2021/12/10 06:20:38;;;;;;;159.82;62.60;;;2.20;99.90;;;2.15;65.10;97399.56;6063274;23;20477;-81
2021/12/10 06:23:04;;;;;;;143.60;56.10;;;2.20;99.90;;;2.25;64.86;97395.38;6015517;23;20025;-81
2021/12/10 06:25:31;;;;;;;165.48;62.13;;;2.30;99.90;;;2.24;64.74;97404.44;6039239;23;20023;-81
2021/12/10 06:27:58;;;;;;;157.52;63.60;;;2.30;99.90;;;2.22;64.69;97412.75;6038534;23;20026;-81
2021/12/10 06:30:29;;;;;;;155.77;60.05;;;2.30;99.90;;;2.26;64.25;97419.19;6039356;23;20021;-80
2021/12/10 06:32:56;;;;;;;161.80;62.63;;;2.30;99.90;;;2.31;65.00;97423.78;6072705;23;20029;-81
2021/12/10 06:35:24;;;;;;;150.55;61.65;;;2.30;99.90;;;2.28;64.71;97427.75;6038050;23;20347;-80
2021/12/10 06:37:53;;;;;;;157.43;60.03;;;2.30;99.90;;;2.09;64.89;97426.53;6038679;23;20459;-81
2021/12/10 06:40:22;;;;;;;152.70;60.47;;;2.30;99.90;;;2.15;65.21;97430.84;6016881;23;20022;-81
2021/12/10 06:42:48;;;;;;;168.00;62.05;;;2.30;99.90;;;2.20;64.74;97424.75;6040053;23;20133;-81
2021/12/10 06:45:16;;;;;;;167.55;64.88;;;2.30;99.90;;;2.25;64.70;97417.56;6038746;23;20022;-80
2021/12/10 06:47:47;;;;;;;155.30;65.85;;;2.30;99.90;;;2.24;64.55;97417.81;6040594;23;20726;-79
2021/12/10 06:50:18;;;;;;;176.35;71.00;;;2.40;99.90;;;2.19;64.32;97418.59;6027645;23;20359;-79
2021/12/10 06:52:44;;;;;;;163.75;63.22;;;2.30;99.90;;;2.15;64.18;97425.50;6036021;23;20110;-78
2021/12/10 06:55:11;;;;;;;159.23;64.85;;;2.40;99.90;;;2.14;64.40;97424.72;6015702;23;20563;-78
2021/12/10 06:57:37;;;;;;;166.07;67.18;;;2.30;99.90;;;2.16;64.59;97417.25;6037468;23;20354;-78
2021/12/10 07:00:12;;;;;;;157.38;65.35;;;2.30;99.90;;;2.22;64.53;97423.44;6037220;23;20097;-78
2021/12/10 07:02:40;;;;;;;153.45;62.47;;;2.30;99.90;;;2.19;64.63;97421.28;6048316;23;20454;-78
2021/12/10 07:05:07;;;;;;;171.98;69.93;;;2.30;99.90;;;2.25;64.67;97422.13;6037481;23;20080;-78
2021/12/10 07:07:33;;;;;;;164.93;68.30;;;2.30;99.90;;;2.30;64.72;97422.97;6060126;23;20023;-78
2021/12/10 07:10:00;;;;;;;159.23;62.90;;;2.40;99.90;;;2.34;65.14;97416.06;6036610;23;20049;-78
2021/12/10 07:12:26;;;;;;;156.57;65.15;;;2.40;99.90;;;2.39;64.79;97413.44;6061384;23;20027;-78
2021/12/10 07:14:53;;;;;;;144.88;64.43;;;2.50;99.90;;;2.46;65.28;97415.88;6036500;23;20026;-78
2021/12/10 07:17:19;;;;;;;160.40;69.03;;;2.50;99.90;;;2.60;64.72;97414.41;6010956;23;20029;-79
2021/12/10 07:19:45;;;;;;;160.40;65.57;;;2.60;99.90;;;2.66;64.73;97415.25;6037287;23;20275;-79
2021/12/10 07:22:11;;;;;;;164.27;67.72;;;2.70;99.90;;;2.75;64.78;97413.72;6037324;23;20022;-79
2021/12/10 07:24:37;;;;;;;156.73;66.10;;;2.80;99.90;;;2.83;64.09;97410.53;6037879;23;20058;-79
2021/12/10 07:27:08;;;;;;;172.32;67.47;;;2.90;99.90;;;2.99;63.00;97422.16;6061414;23;20081;-78
2021/12/10 07:29:34;;;;;;;173.05;68.68;;;3.00;99.90;;;2.94;63.80;97422.13;6062501;23;20125;-78
2021/12/10 07:32:00;;;;;;;146.23;61.58;;;3.00;99.90;;;2.98;63.48;97422.44;6061589;23;20479;-78
2021/12/10 07:34:26;;;;;;;154.25;65.00;;;3.10;99.90;;;3.14;63.06;97420.66;6036498;23;20034;-79
2021/12/10 07:36:54;;;;;;;146.30;59.33;;;3.20;99.90;;;3.27;63.16;97430.91;6059098;23;20209;-79
2021/12/10 07:39:20;;;;;;;148.95;60.75;;;3.20;99.90;;;3.27;62.64;97430.91;6013773;23;20090;-79
2021/12/10 07:41:47;;;;;;;153.38;66.10;;;3.40;99.90;;;3.14;62.63;97432.16;6037360;23;20074;-79
2021/12/10 07:44:13;;;;;;;160.55;65.63;;;3.40;99.90;;;3.14;62.43;97436.72;6038029;23;20093;-79
2021/12/10 07:46:40;;;;;;;162.55;64.25;;;3.40;99.90;;;3.32;62.22;97440.84;6015003;23;20023;-79
2021/12/10 07:49:14;;;;;;;172.07;66.28;;;3.40;99.90;;;3.44;61.92;97444.13;6040992;23;20169;-78
2021/12/10 07:51:40;;;;;;;155.32;63.90;;;3.50;99.90;;;3.44;61.81;97457.53;6019306;23;20019;-78
2021/12/10 07:54:06;;;;;;;169.10;66.18;;;3.50;99.90;;;3.55;62.17;97453.81;6042189;23;20023;-78
2021/12/10 07:56:35;;;;;;;177.15;72.35;;;3.50;99.90;;;3.56;61.59;97455.47;6042119;23;20046;-78
2021/12/10 07:59:01;;;;;;;160.02;66.45;;;3.60;99.90;;;3.55;61.52;97455.72;6042168;23;20073;-78
2021/12/10 08:01:28;;;;;;;183.45;73.57;;;3.60;99.90;;;3.48;61.11;97458.63;6041407;23;20493;-78
2021/12/10 08:03:56;;;;;;;181.05;73.32;;;3.60;99.90;;;3.54;60.93;97462.94;6040985;23;20109;-78
2021/12/10 08:06:22;;;;;;;172.18;71.47;;;3.60;99.90;;;3.76;60.67;97451.22;6065404;23;20015;-78
2021/12/10 08:08:48;;;;;;;180.48;75.32;;;3.70;99.90;;;3.73;61.23;97454.44;6016898;23;20023;-78
2021/12/10 08:11:14;;;;;;;178.32;75.68;;;3.90;99.90;;;3.82;61.30;97447.50;6016721;23;20015;-78
2021/12/10 08:13:41;;;;;;;161.90;68.68;;;3.90;99.90;;;3.80;61.10;97452.34;6039951;23;20026;-78
2021/12/10 08:16:07;;;;;;;168.75;70.65;;;4.00;99.90;;;4.02;60.74;97452.94;6039885;23;20023;-78
2021/12/10 08:18:33;;;;;;;146.52;66.10;;;4.10;99.90;;;4.21;60.47;97455.94;6039868;23;20035;-78
2021/12/10 08:20:59;;;;;;;141.63;63.85;;;4.20;99.90;;;4.42;59.59;97456.75;6062961;23;20018;-78
2021/12/10 08:23:25;;;;;;;130.05;59.97;;;4.40;99.90;;;4.54;59.42;97457.31;6039523;23;20026;-78
2021/12/10 08:25:51;;;;;;;147.93;62.15;;;4.60;99.90;;;4.53;59.02;97458.41;6015649;23;20447;-78
2021/12/10 08:28:18;;;;;;;131.82;63.28;;;4.70;99.90;;;4.39;59.41;97460.00;6041146;23;20328;-78
2021/12/10 08:30:44;;;;;;;124.35;53.33;;;4.70;99.90;;;4.44;59.71;97451.94;6040454;23;20019;-78
2021/12/10 08:33:12;;;;;;;129.05;53.17;;;4.70;99.90;;;4.54;59.37;97460.00;6039225;23;20097;-78
2021/12/10 08:35:39;;;;;;;114.15;53.30;;;4.70;99.90;;;4.69;58.89;97469.16;6061391;23;20026;-78
2021/12/10 08:38:05;;;;;;;123.65;52.15;;;4.80;99.90;;;4.60;58.46;97462.69;6063577;23;20023;-79
2021/12/10 08:40:47;;;;;;;112.00;48.55;;;4.70;99.90;;;4.42;58.62;97467.50;6012440;23;20343;-82
2021/12/10 08:43:13;;;;;;;103.47;47.00;;;4.70;99.90;;;4.23;59.03;97467.22;6071949;23;20019;-80
2021/12/10 08:45:40;;;;;;;95.95;44.28;;;4.50;99.90;;;4.27;59.85;97467.47;6038900;23;20260;-79
2021/12/10 08:48:06;;;;;;;105.57;47.53;;;4.50;99.90;;;4.25;59.48;97480.34;6039446;23;20019;-79
2021/12/10 08:50:35;;;;;;;115.32;49.03;;;4.50;99.90;;;4.46;59.85;97467.81;6039565;23;20502;-79
2021/12/10 08:53:04;;;;;;;102.97;45.28;;;4.60;99.90;;;4.71;58.98;97470.50;6038403;23;20481;-79
2021/12/10 08:55:31;;;;;;;109.65;48.95;;;4.80;99.90;;;4.93;58.53;97470.22;6038920;23;20025;-79
2021/12/10 08:57:57;;;;;;;114.60;51.50;;;5.00;99.90;;;5.04;58.46;97462.16;6040133;23;20051;-79
2021/12/10 09:00:24;;;;;;;107.75;50.20;;;5.10;99.90;;;5.27;57.46;97469.66;6017878;23;20404;-79
2021/12/10 09:02:51;;;;;;;105.22;47.38;;;5.20;99.90;;;5.23;56.69;97457.81;6016049;23;20019;-79
2021/12/10 09:05:17;;;;;;;108.72;46.95;;;5.40;99.90;;;5.21;57.44;97454.59;6063819;23;20019;-79
2021/12/10 09:07:45;;;;;;;113.93;50.25;;;5.40;99.90;;;5.28;56.23;97457.81;6063113;23;20514;-79
2021/12/10 09:10:16;;;;;;;99.25;49.22;;;5.50;99.90;;;5.21;57.18;97449.22;6040512;23;20046;-79
2021/12/10 09:12:42;;;;;;;101.57;46.10;;;5.60;99.90;;;5.31;56.90;97443.81;6075288;23;20306;-80
2021/12/10 09:15:11;;;;;;;105.45;51.13;;;5.60;99.90;;;5.44;55.98;97451.34;6020411;23;20110;-80
2021/12/10 09:17:39;;;;;;;112.55;47.15;;;5.70;99.90;;;5.58;55.79;97448.06;6066031;23;20018;-80
2021/12/10 09:20:11;;;;;;;107.47;49.38;;;5.80;99.90;;;5.63;56.32;97450.75;6019531;23;20019;-80
2021/12/10 09:22:37;;;;;;;117.38;52.38;;;5.90;99.90;;;5.88;55.43;97447.94;6053930;23;20458;-79
2021/12/10 09:25:05;;;;;;;112.00;49.22;;;6.00;99.90;;;6.06;54.51;97440.38;6041104;23;20051;-80
2021/12/10 09:27:34;;;;;;;120.97;51.35;;;6.20;99.90;;;6.13;54.19;97448.13;6039676;23;20018;-80
2021/12/10 09:30:00;;;;;;;114.95;51.53;;;6.30;99.90;;;6.00;54.14;97446.84;6043501;23;20023;-80
2021/12/10 09:32:26;;;;;;;106.78;50.15;;;6.40;99.90;;;6.32;53.87;97442.91;6020255;23;20038;-80
2021/12/10 09:34:57;;;;;;;108.53;51.45;;;6.50;99.90;;;6.45;53.75;97443.06;6043905;23;20022;-80
2021/12/10 09:37:24;;;;;;;111.90;48.50;;;6.60;99.90;;;6.39;53.04;97441.50;6072400;23;20354;-80
2021/12/10 09:39:51;;;;;;;105.65;50.70;;;6.70;99.90;;;6.34;53.52;97438.06;6045358;23;20494;-80
2021/12/10 09:42:20;;;;;;;121.47;52.10;;;6.60;99.90;;;6.15;53.43;97437.88;6046590;23;20086;-80
2021/12/10 09:44:46;;;;;;;122.68;55.78;;;6.60;99.90;;;5.93;53.54;97436.38;6045873;23;20030;-80
2021/12/10 09:47:15;;;;;;;113.90;52.88;;;6.50;99.90;;;5.86;54.48;97435.84;6044920;23;20019;-80
2021/12/10 09:49:53;;;;;;;111.90;52.38;;;6.40;99.90;;;6.00;54.29;97422.63;6044262;23;20025;-80
2021/12/10 09:52:23;;;;;;;114.15;54.05;;;6.40;99.90;;;6.06;54.17;97419.63;6020977;23;20046;-80
2021/12/10 09:54:49;;;;;;;115.78;52.97;;;6.40;99.90;;;6.00;54.32;97417.22;6044804;23;20022;-80
2021/12/10 09:57:30;;;;;;;110.45;51.97;;;6.40;99.90;;;6.02;54.43;97412.38;6020420;23;20019;-80
2021/12/10 09:59:57;;;;;;;109.05;50.22;;;6.30;99.90;;;5.93;54.46;97411.31;6052925;23;20022;-80
2021/12/10 10:02:23;;;;;;;101.45;50.45;;;6.30;99.90;;;5.88;54.21;97418.34;6045884;23;20713;-79
2021/12/10 10:04:50;;;;;;;106.00;50.47;;;6.20;99.90;;;5.85;54.71;97418.91;6045563;23;20019;-79
2021/12/10 10:07:23;;;;;;;110.35;52.47;;;6.10;99.90;;;5.61;54.48;97407.16;6024342;23;20023;-79
2021/12/10 10:09:54;;;;;;;122.72;57.03;;;5.90;99.90;;;5.24;55.69;97408.38;6080904;23;20102;-79
2021/12/10 10:12:33;;;;;;;108.90;52.50;;;5.70;99.90;;;5.09;55.69;97405.69;6054193;23;20046;-79
2021/12/10 10:15:04;;;;;;;121.93;56.47;;;5.50;99.90;;;5.04;56.81;97401.16;6052910;23;20025;-79
2021/12/10 10:17:30;;;;;;;128.60;58.22;;;5.30;99.90;;;4.92;57.42;97396.06;6022274;23;20038;-79
2021/12/10 10:19:56;;;;;;;122.85;57.60;;;5.10;99.90;;;4.95;57.58;97398.22;6066736;23;20027;-79
2021/12/10 10:22:26;;;;;;;229.55;112.22;;;5.10;99.90;;;4.88;57.43;97404.94;6043266;23;20015;-79
2021/12/10 10:24:53;;;;;;;138.98;66.63;;;5.00;99.90;;;4.83;58.07;97407.63;6055398;23;20019;-79
2021/12/10 10:27:30;;;;;;;148.45;67.43;;;5.00;99.90;;;4.92;57.80;97406.00;6050387;23;20078;-79